createdAt,value
2022-08-05T00:01:48.652Z,976.01
2022-08-05T00:08:33.103Z,975.71
2022-08-05T00:14:51.623Z,975.71
2022-08-05T00:21:19.103Z,975.09
2022-08-05T00:27:51.695Z,974.32
2022-08-05T00:34:43.183Z,974.02
2022-08-05T00:41:12.475Z,973.89
2022-08-05T00:47:53.708Z,973.49
2022-08-05T00:54:20.887Z,973.45
2022-08-05T01:00:57.958Z,973.43
2022-08-05T01:07:21.940Z,973.67
2022-08-05T01:14:28.191Z,974.25
2022-08-05T01:21:37.936Z,974.82
2022-08-05T01:28:49.178Z,975.03
2022-08-05T01:35:54.208Z,974.82
2022-08-05T01:42:41.465Z,974.84
2022-08-05T01:49:24.930Z,975.12
2022-08-05T01:56:09.782Z,974.98
2022-08-05T02:02:55.659Z,974.56
2022-08-05T02:09:41.198Z,973.88
2022-08-05T02:16:44.857Z,973.77
2022-08-05T02:23:49.245Z,974.01
2022-08-05T02:30:54.622Z,975.95
2022-08-05T02:37:54.483Z,976.55
2022-08-05T02:44:45.214Z,976.67
2022-08-05T02:52:01.039Z,976.17
2022-08-05T02:58:26.641Z,975.23
2022-08-05T03:05:05.604Z,974.8
2022-08-05T03:11:54.199Z,974.75
2022-08-05T03:18:31.034Z,974.95
2022-08-05T03:25:32.096Z,975.28
2022-08-05T03:32:00.334Z,975.46
2022-08-05T03:38:38.204Z,975.86
2022-08-05T03:45:22.267Z,976.44
2022-08-05T03:52:36.408Z,975.98
2022-08-05T03:59:25.293Z,975.77
2022-08-05T04:06:21.295Z,976.16
2022-08-05T04:12:55.151Z,976.51
2022-08-05T04:19:31.743Z,976.05
2022-08-05T04:26:18.481Z,976.26
2022-08-05T04:32:46.773Z,976.42
2022-08-05T04:39:17.009Z,976.38
2022-08-05T04:45:56.915Z,976.75
2022-08-05T04:52:35.189Z,976.57
2022-08-05T04:59:13.901Z,976.69
2022-08-05T05:06:36.379Z,976.42
2022-08-05T05:12:33.404Z,976.1
2022-08-05T05:19:23.727Z,975.93
2022-08-05T05:25:48.556Z,975.69
2022-08-05T05:32:18.939Z,975.65
2022-08-05T05:38:56.183Z,975.59
2022-08-05T05:45:21.359Z,975.37
2022-08-05T05:51:56.571Z,975.36
2022-08-05T05:58:32.975Z,975.48
2022-08-05T06:05:16.486Z,975.88
2022-08-05T06:11:59.033Z,976.07
2022-08-05T06:18:31.853Z,976.27
2022-08-05T06:25:01.014Z,976.24
2022-08-05T06:31:34.486Z,976.51
2022-08-05T06:38:12.262Z,976.58
2022-08-05T06:44:37.458Z,976.53
2022-08-05T06:51:01.336Z,976.71
2022-08-05T06:57:58.378Z,976.74
2022-08-05T07:04:29.007Z,976.62
2022-08-05T07:10:58.421Z,976.71
2022-08-05T07:17:58.142Z,976.79
2022-08-05T07:24:11.166Z,976.71
2022-08-05T07:30:55.477Z,976.62
2022-08-05T07:37:20.240Z,976.41
2022-08-05T07:43:48.163Z,976.69
2022-08-05T07:50:32.608Z,976.79
2022-08-05T07:57:23.737Z,976.76
2022-08-05T08:03:58.502Z,976.82
2022-08-05T08:10:27.975Z,976.82
2022-08-05T08:16:59.740Z,976.54
2022-08-05T08:24:00.614Z,976.32
2022-08-05T08:30:37.921Z,976.26
2022-08-05T08:37:10.914Z,976.79
2022-08-05T08:45:21.873Z,976.97
2022-08-05T08:51:04.263Z,976.94
2022-08-05T08:57:59.281Z,977.05
2022-08-05T09:04:31.777Z,977
2022-08-05T09:11:19.221Z,977.08
2022-08-05T09:17:55.581Z,977.31
2022-08-05T09:24:40.703Z,977.53
2022-08-05T09:32:39.582Z,977.82
2022-08-05T09:38:44.039Z,977.83
2022-08-05T09:46:05.599Z,977.76
2022-08-05T09:52:46.226Z,977.49
2022-08-05T09:59:46.223Z,977.4
2022-08-05T10:06:37.910Z,977.5
2022-08-05T10:13:26.712Z,977.42
2022-08-05T10:20:30.168Z,977.35
2022-08-05T10:27:02.785Z,977.41
2022-08-05T10:33:36.629Z,977.48
2022-08-05T10:40:18.854Z,977.56
2022-08-05T10:47:31.997Z,977.55
2022-08-05T10:54:37.752Z,977.51
2022-08-05T11:01:55.736Z,977.48
2022-08-05T11:08:39.703Z,977.63
2022-08-05T11:15:22.088Z,977.63
2022-08-05T11:22:10.312Z,977.68
2022-08-05T11:28:53.481Z,977.65
2022-08-05T11:36:02.975Z,977.74
2022-08-05T11:42:46.024Z,977.85
2022-08-05T11:49:26.324Z,977.84
2022-08-05T11:56:11.348Z,978.02
2022-08-05T12:02:46.412Z,978.25
2022-08-05T12:09:38.539Z,978.68
2022-08-05T12:16:29.501Z,978.68
2022-08-05T12:23:11.111Z,978.61
2022-08-05T12:29:57.706Z,978.81
2022-08-05T12:36:39.486Z,979.13
2022-08-05T12:43:21.364Z,978.68
2022-08-05T12:50:07.653Z,978.47
2022-08-05T12:56:54.116Z,978.45
2022-08-05T13:03:59.269Z,978.37
2022-08-05T13:10:50.438Z,978.48
2022-08-05T13:17:50.608Z,978.52
2022-08-05T13:24:44.874Z,978.48
2022-08-05T13:31:15.349Z,978.36
2022-08-05T13:37:37.195Z,978.45
2022-08-05T13:43:59.334Z,978.52
2022-08-05T13:50:26.423Z,978.55
2022-08-05T13:57:48.898Z,978.56
2022-08-05T14:04:19.668Z,978.56
2022-08-05T14:11:20.050Z,978.6
2022-08-05T14:17:38.124Z,978.62
2022-08-05T14:24:05.302Z,978.69
2022-08-05T14:30:30.580Z,978.7
2022-08-05T14:36:55.761Z,978.78
2022-08-05T14:43:59.921Z,978.89
2022-08-05T14:50:14.220Z,978.98
2022-08-05T14:56:47.188Z,979
2022-08-05T15:03:10.280Z,979.08
2022-08-05T15:09:51.066Z,979.06
2022-08-05T15:16:23.057Z,979.05
2022-08-05T15:22:55.841Z,979.11
2022-08-05T15:29:42.698Z,979.11
2022-08-05T15:36:24.095Z,979.12
2022-08-05T15:43:09.512Z,979.12
2022-08-05T15:49:55.406Z,979.14
2022-08-05T15:56:33.674Z,979.24
2022-08-05T16:03:00.255Z,979.29
2022-08-05T16:09:33.488Z,979.4
2022-08-05T16:15:57.972Z,979.51
2022-08-05T16:22:33.837Z,979.58
2022-08-05T16:28:58.879Z,979.62
2022-08-05T16:35:34.686Z,979.65
2022-08-05T16:42:17.682Z,979.65
2022-08-05T16:48:43.630Z,979.65
2022-08-05T16:55:05.273Z,979.71
2022-08-05T17:01:53.482Z,979.78
2022-08-05T17:08:33.835Z,979.84
2022-08-05T17:14:58.980Z,979.88
2022-08-05T17:21:36.820Z,979.88
2022-08-05T17:28:16.982Z,979.85
2022-08-05T17:34:54.067Z,979.85
2022-08-05T17:42:17.182Z,979.93
2022-08-05T17:48:37.380Z,979.97
2022-08-05T17:55:10.822Z,980.1
2022-08-05T18:01:50.978Z,980.13
2022-08-05T18:08:16.423Z,980.18
2022-08-05T18:14:47.911Z,980.27
2022-08-05T18:21:26.258Z,980.37
2022-08-05T18:27:53.665Z,980.58
2022-08-05T18:34:15.664Z,980.69
2022-08-05T18:41:51.114Z,980.76
2022-08-05T18:47:34.661Z,980.94
2022-08-05T18:54:01.410Z,980.97
2022-08-05T19:00:35.813Z,981.14
2022-08-05T19:06:59.188Z,981.29
2022-08-05T19:13:36.945Z,981.37
2022-08-05T19:20:00.377Z,981.53
2022-08-05T19:26:31.377Z,981.66
2022-08-05T19:32:59.747Z,981.81
2022-08-05T19:39:32.279Z,981.89
2022-08-05T19:46:29.905Z,982.03
2022-08-05T19:52:52.817Z,982.2
2022-08-05T19:59:55.647Z,982.25
2022-08-05T20:05:58.519Z,982.35
2022-08-05T20:12:31.095Z,982.51
2022-08-05T20:19:02.423Z,982.63
2022-08-05T20:25:39.787Z,982.65
2022-08-05T20:32:05.428Z,982.65
2022-08-05T20:38:36.381Z,982.73
2022-08-05T20:45:03.390Z,982.81
2022-08-05T20:51:34.699Z,982.9
2022-08-05T20:58:03.894Z,983.08
2022-08-05T21:04:28.040Z,983.2
2022-08-05T21:11:09.250Z,983.2
2022-08-05T21:17:36.855Z,983.32
2022-08-05T21:24:05.803Z,983.3
2022-08-05T21:30:49.437Z,983.35
2022-08-05T21:37:19.757Z,983.36
2022-08-05T21:44:05.441Z,983.36
2022-08-05T21:50:38.324Z,983.38
2022-08-05T21:57:33.269Z,983.4
2022-08-05T22:03:53.737Z,983.47
2022-08-05T22:10:15.383Z,983.46
2022-08-05T22:16:51.594Z,983.36
2022-08-05T22:23:22.259Z,983.5
2022-08-05T22:29:55.119Z,983.5
2022-08-05T22:36:24.877Z,983.48
2022-08-05T22:42:58.814Z,983.56
2022-08-05T22:50:18.943Z,983.56
2022-08-05T22:56:13.824Z,983.66
2022-08-05T23:02:48.805Z,983.72
2022-08-05T23:09:52.923Z,983.79
2022-08-05T23:16:09.093Z,983.87
2022-08-05T23:22:43.339Z,983.93
2022-08-05T23:29:21.517Z,983.91
2022-08-05T23:35:57.185Z,983.96
2022-08-05T23:42:29.938Z,983.93
2022-08-05T23:49:15.640Z,984.05
2022-08-05T23:55:54.866Z,984.03
